createdAt,value
2017-10-25T00:00:15.282Z,0
2017-10-25T00:00:55.751Z,0
2017-10-25T00:01:36.226Z,0
2017-10-25T00:03:49.043Z,0
2017-10-25T00:04:29.466Z,0
2017-10-25T00:05:09.974Z,0
2017-10-25T00:05:50.429Z,0
2017-10-25T00:06:30.943Z,0
2017-10-25T00:07:11.426Z,0
2017-10-25T00:07:51.906Z,0
2017-10-25T00:08:32.387Z,0
2017-10-25T00:09:12.915Z,0
2017-10-25T00:09:53.351Z,0
2017-10-25T00:10:33.800Z,0
2017-10-25T00:11:14.254Z,0
2017-10-25T00:11:54.723Z,0
2017-10-25T00:12:35.165Z,0
2017-10-25T00:15:13.383Z,0
2017-10-25T00:15:53.851Z,0
2017-10-25T00:16:34.358Z,0
2017-10-25T00:17:14.796Z,0
2017-10-25T00:17:55.244Z,0
2017-10-25T00:18:35.743Z,0
2017-10-25T00:19:16.204Z,0
2017-10-25T00:19:56.665Z,0
2017-10-25T00:20:37.133Z,0
2017-10-25T00:21:17.593Z,0
2017-10-25T00:21:58.035Z,0
2017-10-25T00:22:38.486Z,0
2017-10-25T00:23:18.903Z,0
2017-10-25T00:23:59.344Z,0
2017-10-25T00:24:39.821Z,0
2017-10-25T00:25:20.230Z,0
2017-10-25T00:26:00.682Z,0
2017-10-25T00:26:41.157Z,0
2017-10-25T00:27:21.689Z,0
2017-10-25T00:28:02.214Z,0
2017-10-25T00:28:42.651Z,0
2017-10-25T00:29:23.106Z,0
2017-10-25T00:30:03.584Z,0
2017-10-25T00:30:44.047Z,0
2017-10-25T00:31:24.508Z,0
2017-10-25T00:32:04.940Z,0
2017-10-25T00:32:45.423Z,0
2017-10-25T00:33:25.854Z,0
2017-10-25T00:34:06.343Z,0
2017-10-25T00:34:46.797Z,0
2017-10-25T00:35:27.258Z,0
2017-10-25T00:36:07.719Z,0
2017-10-25T00:36:48.268Z,0
2017-10-25T00:37:28.715Z,0
2017-10-25T00:38:09.189Z,0
2017-10-25T00:38:49.695Z,0
2017-10-25T00:39:30.198Z,0
2017-10-25T00:40:10.662Z,0
2017-10-25T00:40:51.129Z,0
2017-10-25T00:41:31.580Z,0
2017-10-25T00:42:12.044Z,0
2017-10-25T00:42:52.474Z,0
2017-10-25T00:43:32.956Z,0
2017-10-25T00:44:13.466Z,0
2017-10-25T00:46:46.493Z,0
2017-10-25T00:47:26.954Z,0
2017-10-25T00:48:07.378Z,0
2017-10-25T00:48:47.824Z,0
2017-10-25T00:49:28.307Z,0
2017-10-25T00:50:08.731Z,0
2017-10-25T00:50:49.185Z,0
2017-10-25T00:51:29.695Z,0
2017-10-25T00:52:10.209Z,0
2017-10-25T00:52:50.686Z,0
2017-10-25T00:53:31.158Z,0
2017-10-25T00:54:11.636Z,0
2017-10-25T00:54:52.062Z,0
2017-10-25T00:55:32.500Z,0
2017-10-25T00:56:12.957Z,0
2017-10-25T00:56:53.397Z,0
2017-10-25T00:57:33.812Z,0
2017-10-25T01:00:06.851Z,0
2017-10-25T01:00:47.299Z,0
2017-10-25T01:03:20.277Z,0
2017-10-25T01:04:00.783Z,0
2017-10-25T01:06:38.905Z,0
2017-10-25T01:07:19.389Z,0
2017-10-25T01:07:59.869Z,0
2017-10-25T01:08:41.297Z,0
2017-10-25T01:09:21.802Z,0
2017-10-25T01:10:02.247Z,0
2017-10-25T01:10:42.733Z,0
2017-10-25T01:11:23.218Z,0
2017-10-25T01:12:03.712Z,0
2017-10-25T01:12:44.211Z,0
2017-10-25T01:13:24.664Z,0
2017-10-25T01:14:05.176Z,0
2017-10-25T01:14:45.659Z,0
2017-10-25T01:15:26.124Z,0
2017-10-25T01:16:06.611Z,0
2017-10-25T01:16:47.053Z,0
2017-10-25T01:17:27.513Z,0
2017-10-25T01:18:08.026Z,0
2017-10-25T01:18:48.487Z,0
2017-10-25T01:21:21.464Z,0
2017-10-25T01:22:01.969Z,0
2017-10-25T01:22:42.452Z,0
2017-10-25T01:23:22.931Z,0
2017-10-25T01:24:03.434Z,0
2017-10-25T01:24:43.906Z,0
2017-10-25T01:25:24.398Z,0
2017-10-25T01:26:04.865Z,0
2017-10-25T01:26:45.352Z,0
2017-10-25T01:29:18.495Z,0
2017-10-25T01:29:58.961Z,0
2017-10-25T01:30:39.427Z,0
2017-10-25T01:31:19.899Z,0
2017-10-25T01:32:00.386Z,0
2017-10-25T01:34:28.371Z,0
2017-10-25T01:35:08.848Z,0
2017-10-25T01:35:49.343Z,0
2017-10-25T01:36:29.849Z,0
2017-10-25T01:37:10.321Z,0
2017-10-25T01:37:50.836Z,0
2017-10-25T01:38:31.327Z,0
2017-10-25T01:39:11.807Z,0
2017-10-25T01:39:52.346Z,0
2017-10-25T01:40:32.804Z,0
2017-10-25T01:41:13.278Z,0
2017-10-25T01:41:53.751Z,0
2017-10-25T01:42:34.204Z,0
2017-10-25T01:43:14.634Z,0
2017-10-25T01:43:55.065Z,0
2017-10-25T01:44:35.540Z,0
2017-10-25T01:45:15.983Z,0
2017-10-25T01:45:56.436Z,0
2017-10-25T01:46:36.913Z,0
2017-10-25T01:47:17.364Z,0
2017-10-25T01:47:57.818Z,0
2017-10-25T01:48:38.267Z,0
2017-10-25T01:49:18.743Z,0
2017-10-25T01:49:59.243Z,0
2017-10-25T01:50:39.703Z,0
2017-10-25T01:51:20.149Z,0
2017-10-25T01:52:00.663Z,0
2017-10-25T01:52:41.136Z,0
2017-10-25T01:53:21.598Z,0
2017-10-25T01:54:02.063Z,0
2017-10-25T01:54:42.491Z,0
2017-10-25T01:56:55.251Z,0
2017-10-25T01:57:35.751Z,0
2017-10-25T01:58:16.203Z,0
2017-10-25T01:58:56.647Z,0
2017-10-25T01:59:37.096Z,0
2017-10-25T02:00:17.572Z,0
2017-10-25T02:00:58.034Z,0
2017-10-25T02:01:38.512Z,0
2017-10-25T02:02:18.976Z,0
2017-10-25T02:02:59.398Z,0
2017-10-25T02:03:39.861Z,0
2017-10-25T02:04:20.323Z,0
2017-10-25T02:05:00.756Z,0
2017-10-25T02:05:41.184Z,0
2017-10-25T02:06:21.644Z,0
2017-10-25T02:07:02.169Z,0
2017-10-25T02:07:42.563Z,0
2017-10-25T02:08:23.048Z,0
2017-10-25T02:09:03.537Z,0
2017-10-25T02:09:43.982Z,0
2017-10-25T02:10:24.456Z,0
2017-10-25T02:11:04.940Z,0
2017-10-25T02:11:45.344Z,0
2017-10-25T02:12:25.824Z,0
2017-10-25T02:13:06.248Z,0
2017-10-25T02:13:46.676Z,0
2017-10-25T02:14:27.146Z,0
2017-10-25T02:15:07.578Z,0
2017-10-25T02:15:48.015Z,0
2017-10-25T02:16:28.490Z,0
2017-10-25T02:17:08.967Z,0
2017-10-25T02:17:49.447Z,0
2017-10-25T02:18:29.888Z,0
2017-10-25T02:19:10.371Z,0
2017-10-25T02:19:50.834Z,0
2017-10-25T02:20:31.318Z,0
2017-10-25T02:21:11.787Z,0
2017-10-25T02:21:52.258Z,0
2017-10-25T02:22:32.722Z,0
2017-10-25T02:23:13.223Z,0
2017-10-25T02:23:53.636Z,0
2017-10-25T02:24:34.119Z,0
2017-10-25T02:25:14.556Z,0
2017-10-25T02:25:55.009Z,0
2017-10-25T02:26:35.522Z,0
2017-10-25T02:27:15.981Z,0
2017-10-25T02:27:56.464Z,0
2017-10-25T02:28:36.864Z,0
2017-10-25T02:29:17.337Z,0
2017-10-25T02:29:57.767Z,0
2017-10-25T02:30:38.251Z,0
2017-10-25T02:31:18.719Z,0
2017-10-25T02:31:59.126Z,0
2017-10-25T02:32:39.595Z,0
2017-10-25T02:33:20.096Z,0
2017-10-25T02:34:00.501Z,0
2017-10-25T02:36:38.599Z,0
2017-10-25T02:37:19.027Z,0
2017-10-25T02:37:59.469Z,0
2017-10-25T02:40:17.291Z,0
2017-10-25T02:40:57.947Z,0
2017-10-25T02:41:38.435Z,0
2017-10-25T02:44:06.375Z,0
2017-10-25T02:44:46.824Z,0
2017-10-25T02:45:27.353Z,0
2017-10-25T02:46:07.782Z,0
2017-10-25T02:46:48.245Z,0
2017-10-25T02:47:28.710Z,0
2017-10-25T02:48:09.125Z,0
2017-10-25T02:48:49.570Z,0
2017-10-25T02:49:30.024Z,0
2017-10-25T02:50:10.452Z,0
2017-10-25T02:50:50.910Z,0
2017-10-25T02:51:31.374Z,0
2017-10-25T02:52:11.801Z,0
2017-10-25T02:52:52.268Z,0
2017-10-25T02:53:32.804Z,0
2017-10-25T02:54:13.285Z,0
2017-10-25T02:56:26.042Z,0
2017-10-25T02:57:06.476Z,0
2017-10-25T02:57:46.909Z,0
2017-10-25T02:58:27.347Z,0
2017-10-25T02:59:07.804Z,0
2017-10-25T02:59:48.247Z,0
2017-10-25T03:00:28.740Z,0
2017-10-25T03:01:09.249Z,0
2017-10-25T03:01:49.723Z,0
2017-10-25T03:02:30.148Z,0
2017-10-25T03:03:10.624Z,0
2017-10-25T03:03:51.162Z,0
2017-10-25T03:04:31.669Z,0
2017-10-25T03:05:13.045Z,0
2017-10-25T03:05:53.492Z,0
2017-10-25T03:06:33.962Z,0
2017-10-25T03:07:14.412Z,0
2017-10-25T03:07:54.882Z,0
2017-10-25T03:08:35.397Z,0
2017-10-25T03:11:03.356Z,0
2017-10-25T03:11:43.851Z,0
2017-10-25T03:12:24.278Z,0
2017-10-25T03:13:04.736Z,0
2017-10-25T03:13:45.201Z,0
2017-10-25T03:14:25.649Z,0
2017-10-25T03:15:06.162Z,0
2017-10-25T03:15:46.600Z,0
2017-10-25T03:16:27.035Z,0
2017-10-25T03:17:07.514Z,0
2017-10-25T03:17:47.912Z,0
2017-10-25T03:18:28.371Z,0
2017-10-25T03:19:13.221Z,0
2017-10-25T03:19:53.272Z,0
2017-10-25T03:20:33.774Z,0
2017-10-25T03:21:14.267Z,0
2017-10-25T03:21:54.692Z,0
2017-10-25T03:22:35.142Z,0
2017-10-25T03:23:15.613Z,0
2017-10-25T03:23:56.071Z,0
2017-10-25T03:24:36.496Z,0
2017-10-25T03:25:16.967Z,0
2017-10-25T03:25:57.418Z,0
2017-10-25T03:26:37.852Z,0
2017-10-25T03:27:18.310Z,0
2017-10-25T03:27:58.721Z,0
2017-10-25T03:28:39.158Z,0
2017-10-25T03:29:19.601Z,0
2017-10-25T03:30:00.079Z,0
2017-10-25T03:30:40.544Z,0
2017-10-25T03:31:20.978Z,0
2017-10-25T03:32:01.431Z,0
2017-10-25T03:32:41.906Z,0
2017-10-25T03:33:22.343Z,0
2017-10-25T03:35:50.300Z,0
2017-10-25T03:36:30.719Z,0
2017-10-25T03:37:11.176Z,0
2017-10-25T03:37:51.625Z,0
2017-10-25T03:40:24.643Z,0
2017-10-25T03:41:05.133Z,0
2017-10-25T03:41:45.631Z,0
2017-10-25T03:42:26.096Z,0
2017-10-25T03:43:06.603Z,0
2017-10-25T03:43:47.094Z,0
2017-10-25T03:44:27.598Z,0
2017-10-25T03:47:05.736Z,0
2017-10-25T03:47:46.184Z,0
2017-10-25T03:48:26.629Z,0
2017-10-25T03:49:07.080Z,0
2017-10-25T03:49:47.481Z,0
2017-10-25T03:50:27.943Z,0
2017-10-25T03:51:08.378Z,0
2017-10-25T03:51:48.825Z,0
2017-10-25T03:52:29.243Z,0
2017-10-25T03:54:42.008Z,0
2017-10-25T03:55:22.436Z,0
2017-10-25T03:56:02.874Z,0
2017-10-25T03:58:15.616Z,0
2017-10-25T03:58:56.067Z,0
2017-10-25T03:59:36.545Z,0
2017-10-25T04:00:16.998Z,0
2017-10-25T04:00:57.468Z,0
2017-10-25T04:01:37.945Z,0
2017-10-25T04:02:18.412Z,0
2017-10-25T04:02:58.805Z,0
2017-10-25T04:03:39.282Z,0
2017-10-25T04:04:19.805Z,0
2017-10-25T04:05:00.204Z,0
2017-10-25T04:05:40.655Z,0
2017-10-25T04:06:21.136Z,0
2017-10-25T04:07:01.591Z,0
2017-10-25T04:07:42.057Z,0
2017-10-25T04:08:22.481Z,0
2017-10-25T04:09:02.938Z,0
2017-10-25T04:09:43.432Z,0
2017-10-25T04:10:23.873Z,0
2017-10-25T04:11:04.335Z,0
2017-10-25T04:11:44.783Z,0
2017-10-25T04:12:25.252Z,0
2017-10-25T04:13:05.660Z,0
2017-10-25T04:13:46.134Z,0
2017-10-25T04:14:26.569Z,0
2017-10-25T04:15:07.024Z,0
2017-10-25T04:15:47.506Z,0
2017-10-25T04:16:27.963Z,0
2017-10-25T04:17:08.460Z,0
2017-10-25T04:17:48.916Z,0
2017-10-25T04:18:29.360Z,0
2017-10-25T04:19:09.821Z,0
2017-10-25T04:19:50.239Z,0
2017-10-25T04:20:30.686Z,0
2017-10-25T04:21:11.154Z,0
2017-10-25T04:21:51.606Z,0
2017-10-25T04:22:32.037Z,0
2017-10-25T04:23:12.542Z,0
2017-10-25T04:23:53.033Z,0
2017-10-25T04:24:33.490Z,0
2017-10-25T04:25:14.017Z,0
2017-10-25T04:25:54.487Z,0
2017-10-25T04:26:34.942Z,0
2017-10-25T04:27:15.396Z,0
2017-10-25T04:27:55.836Z,0
2017-10-25T04:28:36.306Z,0
2017-10-25T04:29:16.747Z,0
2017-10-25T04:29:57.212Z,0
2017-10-25T04:30:37.627Z,0
2017-10-25T04:31:18.097Z,0
2017-10-25T04:31:58.609Z,0
2017-10-25T04:32:38.995Z,0
2017-10-25T04:33:19.438Z,0
2017-10-25T04:33:59.910Z,0
2017-10-25T04:34:40.386Z,0
2017-10-25T04:35:20.820Z,0
2017-10-25T04:36:01.290Z,0
2017-10-25T04:36:41.763Z,0
2017-10-25T04:37:22.260Z,0
2017-10-25T04:38:02.684Z,0
2017-10-25T04:38:43.124Z,0
2017-10-25T04:41:11.033Z,0
2017-10-25T04:41:51.475Z,0
2017-10-25T04:42:31.933Z,0
2017-10-25T04:43:12.408Z,0
2017-10-25T04:43:52.813Z,0
2017-10-25T04:44:33.266Z,0
2017-10-25T04:45:13.733Z,0
2017-10-25T04:45:54.180Z,0
2017-10-25T04:46:34.623Z,0
2017-10-25T04:47:15.055Z,0
2017-10-25T04:47:55.522Z,0
2017-10-25T04:48:36.022Z,0
2017-10-25T04:49:16.476Z,0
2017-10-25T04:49:56.917Z,0
2017-10-25T04:50:37.371Z,0
2017-10-25T04:52:55.183Z,0
2017-10-25T04:53:35.638Z,0
2017-10-25T04:54:16.209Z,0
2017-10-25T04:54:56.669Z,0
2017-10-25T04:55:37.128Z,0
2017-10-25T04:56:17.585Z,0
2017-10-25T04:56:58.090Z,0
2017-10-25T04:57:38.588Z,0
2017-10-25T04:58:19.083Z,0
2017-10-25T04:58:59.568Z,0
2017-10-25T04:59:40.060Z,0
2017-10-25T05:00:20.544Z,0
2017-10-25T05:01:01.029Z,0
2017-10-25T05:01:41.530Z,0
2017-10-25T05:02:22.019Z,0
2017-10-25T05:03:02.501Z,0
2017-10-25T05:03:42.991Z,0
2017-10-25T05:04:23.480Z,0
2017-10-25T05:05:03.943Z,0
2017-10-25T05:05:44.453Z,0
2017-10-25T05:06:24.957Z,0
2017-10-25T05:07:05.422Z,0
2017-10-25T05:07:45.912Z,0
2017-10-25T05:08:26.412Z,0
2017-10-25T05:09:06.895Z,0
2017-10-25T05:09:47.394Z,0
2017-10-25T05:10:27.926Z,0
2017-10-25T05:11:08.368Z,0
2017-10-25T05:11:48.853Z,0
2017-10-25T05:12:29.355Z,0
2017-10-25T05:13:09.828Z,0
2017-10-25T05:13:50.347Z,0
2017-10-25T05:14:30.826Z,0
2017-10-25T05:15:11.303Z,0
2017-10-25T05:15:51.806Z,0
2017-10-25T05:16:32.287Z,0
2017-10-25T05:17:12.778Z,0
2017-10-25T05:17:53.290Z,0
2017-10-25T05:18:33.785Z,0
2017-10-25T05:19:14.286Z,0
2017-10-25T05:19:54.748Z,0
2017-10-25T05:20:35.210Z,0
2017-10-25T05:21:15.715Z,0
2017-10-25T05:21:56.223Z,0
2017-10-25T05:22:36.703Z,0
2017-10-25T05:23:17.175Z,0
2017-10-25T05:23:58.672Z,0
2017-10-25T05:24:39.161Z,0
2017-10-25T05:25:19.641Z,0
2017-10-25T05:26:00.103Z,0
2017-10-25T05:26:40.577Z,0
2017-10-25T05:27:20.989Z,0
2017-10-25T05:29:38.905Z,0
2017-10-25T05:30:19.409Z,0
2017-10-25T05:30:59.843Z,0
2017-10-25T05:31:40.308Z,0
2017-10-25T05:32:20.732Z,0
2017-10-25T05:33:01.238Z,0
2017-10-25T05:33:41.713Z,0
2017-10-25T05:34:22.180Z,0
2017-10-25T05:35:02.697Z,0
2017-10-25T05:35:43.142Z,0
2017-10-25T05:36:23.620Z,0
2017-10-25T05:37:04.153Z,0
2017-10-25T05:37:44.629Z,0
2017-10-25T05:38:25.109Z,0
2017-10-25T05:39:05.502Z,0
2017-10-25T05:39:46.032Z,0
2017-10-25T05:40:26.487Z,0
2017-10-25T05:41:07.235Z,0
2017-10-25T05:41:47.746Z,0
2017-10-25T05:42:28.238Z,0
2017-10-25T05:43:08.765Z,0
2017-10-25T05:43:49.241Z,0
2017-10-25T05:44:29.658Z,0
2017-10-25T05:45:10.093Z,0
2017-10-25T05:45:50.599Z,0
2017-10-25T05:46:31.071Z,0
2017-10-25T05:47:11.713Z,0
2017-10-25T05:47:52.160Z,0
2017-10-25T05:48:32.624Z,0
2017-10-25T05:49:13.085Z,0
2017-10-25T05:49:53.566Z,0
2017-10-25T05:50:34.063Z,0
2017-10-25T05:51:14.598Z,0
2017-10-25T05:51:55.121Z,0
2017-10-25T05:52:35.584Z,0
2017-10-25T05:53:16.045Z,0
2017-10-25T05:53:56.555Z,0
2017-10-25T05:54:37.006Z,0
2017-10-25T05:55:17.472Z,0
2017-10-25T05:55:57.965Z,0
2017-10-25T05:56:38.429Z,0
2017-10-25T05:57:18.993Z,0
2017-10-25T05:57:59.517Z,0
2017-10-25T05:58:40.002Z,0
2017-10-25T06:01:13.137Z,0
2017-10-25T06:01:53.644Z,0
2017-10-25T06:02:34.099Z,0
2017-10-25T06:03:14.539Z,0
2017-10-25T06:03:54.964Z,0
2017-10-25T06:04:35.402Z,0
2017-10-25T06:05:15.897Z,0
2017-10-25T06:05:56.343Z,0
2017-10-25T06:08:24.287Z,0
2017-10-25T06:09:04.782Z,5
2017-10-25T06:09:45.309Z,5
2017-10-25T06:10:25.802Z,5
2017-10-25T06:11:06.268Z,5
2017-10-25T06:11:46.774Z,5
2017-10-25T06:12:27.249Z,5
2017-10-25T06:13:07.731Z,5
2017-10-25T06:13:48.222Z,5
2017-10-25T06:14:29.488Z,5
2017-10-25T06:15:09.968Z,5
2017-10-25T06:15:50.476Z,5
2017-10-25T06:16:30.967Z,5
2017-10-25T06:17:11.412Z,5
2017-10-25T06:17:51.879Z,5
2017-10-25T06:18:32.327Z,10
2017-10-25T06:21:00.292Z,10
2017-10-25T06:21:40.747Z,10
2017-10-25T06:22:21.284Z,10
2017-10-25T06:23:01.722Z,15
2017-10-25T06:23:42.196Z,15
2017-10-25T06:24:22.759Z,15
2017-10-25T06:25:03.222Z,15
2017-10-25T06:25:43.668Z,15
2017-10-25T06:26:24.121Z,20
2017-10-25T06:27:04.632Z,20
2017-10-25T06:27:45.060Z,20
2017-10-25T06:28:26.459Z,20
2017-10-25T06:29:06.895Z,25
2017-10-25T06:29:47.396Z,25
2017-10-25T06:30:27.888Z,25
2017-10-25T06:31:08.369Z,30
2017-10-25T06:31:48.879Z,30
2017-10-25T06:32:29.396Z,30
2017-10-25T06:35:02.414Z,35
2017-10-25T06:35:42.917Z,40
2017-10-25T06:36:23.428Z,40
2017-10-25T06:37:03.849Z,40
2017-10-25T06:37:44.431Z,45
2017-10-25T06:38:24.871Z,45
2017-10-25T06:40:53.181Z,50
2017-10-25T06:41:33.684Z,50
2017-10-25T06:42:14.163Z,55
2017-10-25T06:42:54.588Z,55
2017-10-25T06:43:35.176Z,55
2017-10-25T06:44:15.704Z,60
2017-10-25T06:46:48.742Z,65
2017-10-25T06:47:29.259Z,70
2017-10-25T06:48:09.742Z,70
2017-10-25T06:48:50.128Z,75
2017-10-25T06:51:28.228Z,80
2017-10-25T06:54:01.279Z,90
2017-10-25T06:54:41.764Z,90
2017-10-25T06:55:22.225Z,95
2017-10-25T06:56:02.684Z,100
2017-10-25T06:56:43.149Z,100
2017-10-25T06:57:23.629Z,100
2017-10-25T06:59:36.478Z,105
2017-10-25T07:00:16.974Z,110
2017-10-25T07:00:57.456Z,110
2017-10-25T07:01:37.891Z,110
2017-10-25T07:02:18.418Z,115
2017-10-25T07:02:58.946Z,115
2017-10-25T07:03:39.423Z,115
2017-10-25T07:06:07.591Z,115
2017-10-25T07:06:48.027Z,120
2017-10-25T07:07:28.518Z,120
2017-10-25T07:08:09.515Z,115
2017-10-25T07:08:49.967Z,120
2017-10-25T07:09:30.386Z,115
2017-10-25T07:10:10.859Z,115
2017-10-25T07:10:51.389Z,115
2017-10-25T07:11:31.867Z,115
2017-10-25T07:12:12.412Z,115
2017-10-25T07:12:52.875Z,115
2017-10-25T07:13:33.355Z,115
2017-10-25T07:14:13.821Z,115
2017-10-25T07:14:54.234Z,115
2017-10-25T07:15:34.733Z,115
2017-10-25T07:16:15.222Z,115
2017-10-25T07:16:55.699Z,115
2017-10-25T07:19:23.673Z,115
2017-10-25T07:20:04.097Z,120
2017-10-25T07:20:44.707Z,120
2017-10-25T07:21:25.074Z,120
2017-10-25T07:22:05.613Z,120
2017-10-25T07:22:46.073Z,120
2017-10-25T07:23:26.544Z,125
2017-10-25T07:26:04.694Z,125
2017-10-25T07:26:45.197Z,130
2017-10-25T07:27:25.623Z,130
2017-10-25T07:28:06.184Z,135
2017-10-25T07:28:46.649Z,135
2017-10-25T07:29:27.092Z,135
2017-10-25T07:30:07.529Z,140
2017-10-25T07:30:47.966Z,145
2017-10-25T07:31:28.388Z,145
2017-10-25T07:32:08.934Z,150
2017-10-25T07:34:36.950Z,155
2017-10-25T07:35:17.392Z,160
2017-10-25T07:35:57.853Z,160
2017-10-25T07:36:38.376Z,160
2017-10-25T07:37:18.826Z,160
2017-10-25T07:37:59.272Z,165
2017-10-25T07:38:39.773Z,165
2017-10-25T07:39:20.273Z,170
2017-10-25T07:40:00.716Z,175
2017-10-25T07:40:41.184Z,175
2017-10-25T07:41:21.621Z,180
2017-10-25T07:42:02.093Z,180
2017-10-25T07:42:42.625Z,185
2017-10-25T07:43:23.131Z,180
2017-10-25T07:44:03.620Z,180
2017-10-25T07:46:36.673Z,165
2017-10-25T07:47:17.192Z,160
2017-10-25T07:47:57.705Z,155
2017-10-25T07:48:38.195Z,155
2017-10-25T07:49:18.650Z,155
2017-10-25T07:51:51.686Z,145
2017-10-25T07:52:32.164Z,145
2017-10-25T07:53:12.654Z,145
2017-10-25T07:53:53.180Z,145
2017-10-25T07:54:33.825Z,145
2017-10-25T07:55:14.265Z,145
2017-10-25T07:55:54.713Z,145
2017-10-25T07:56:35.240Z,145
2017-10-25T07:57:15.803Z,145
2017-10-25T07:57:56.263Z,145
2017-10-25T08:00:14.132Z,155
2017-10-25T08:00:54.594Z,160
2017-10-25T08:01:35.352Z,165
2017-10-25T08:02:16.164Z,165
2017-10-25T08:02:56.621Z,170
2017-10-25T08:03:37.064Z,175
2017-10-25T08:04:17.534Z,180
2017-10-25T08:04:58.046Z,180
2017-10-25T08:05:38.645Z,180
2017-10-25T08:06:19.187Z,180
2017-10-25T08:06:59.756Z,185
2017-10-25T08:07:40.196Z,185
2017-10-25T08:08:20.710Z,185
2017-10-25T08:09:01.157Z,180
2017-10-25T08:09:41.686Z,180
2017-10-25T08:10:22.123Z,180
2017-10-25T08:11:02.595Z,180
2017-10-25T08:11:43.071Z,185
2017-10-25T08:12:23.546Z,185
2017-10-25T08:13:04.053Z,190
2017-10-25T08:13:44.551Z,190
2017-10-25T08:16:02.471Z,195
2017-10-25T08:16:42.951Z,200
2017-10-25T08:18:55.679Z,200
2017-10-25T08:19:36.184Z,205
2017-10-25T08:20:16.728Z,205
2017-10-25T08:20:57.198Z,205
2017-10-25T08:21:37.740Z,205
2017-10-25T08:22:18.205Z,205
2017-10-25T08:22:58.656Z,205
2017-10-25T08:23:39.145Z,210
2017-10-25T08:24:19.604Z,210
2017-10-25T08:25:00.131Z,210
2017-10-25T08:25:40.660Z,210
2017-10-25T08:26:21.112Z,215
2017-10-25T08:28:38.940Z,210
2017-10-25T08:29:19.543Z,210
2017-10-25T08:30:00.030Z,205
2017-10-25T08:30:41.150Z,205
2017-10-25T08:31:21.734Z,205
2017-10-25T08:34:00.582Z,190
2017-10-25T08:34:41.070Z,190
2017-10-25T08:35:21.637Z,190
2017-10-25T08:36:02.183Z,185
2017-10-25T08:36:42.738Z,185
2017-10-25T08:37:23.245Z,185
2017-10-25T08:38:03.866Z,180
2017-10-25T08:38:44.366Z,185
2017-10-25T08:41:02.248Z,190
2017-10-25T08:41:42.693Z,190
2017-10-25T08:42:23.174Z,195
2017-10-25T08:43:03.710Z,195
2017-10-25T08:43:44.166Z,195
2017-10-25T08:44:24.685Z,205
2017-10-25T08:45:05.182Z,210
2017-10-25T08:45:45.756Z,215
2017-10-25T08:46:26.206Z,225
2017-10-25T08:47:06.676Z,235
2017-10-25T08:47:47.162Z,245
2017-10-25T08:48:27.640Z,255
2017-10-25T08:50:45.565Z,275
2017-10-25T08:51:26.084Z,270
2017-10-25T08:52:06.640Z,260
2017-10-25T08:54:19.554Z,285
2017-10-25T08:55:00.066Z,295
2017-10-25T08:55:40.552Z,295
2017-10-25T08:56:21.028Z,295
2017-10-25T08:57:01.454Z,300
2017-10-25T08:57:41.967Z,290
2017-10-25T08:59:59.781Z,310
2017-10-25T09:00:40.281Z,315
2017-10-25T09:01:20.782Z,315
2017-10-25T09:03:58.898Z,315
2017-10-25T09:04:39.383Z,325
2017-10-25T09:05:19.897Z,330
2017-10-25T09:07:47.832Z,310
2017-10-25T09:08:28.290Z,310
2017-10-25T09:09:08.724Z,315
2017-10-25T09:09:49.250Z,310
2017-10-25T09:10:29.701Z,300
2017-10-25T09:11:10.307Z,290
2017-10-25T09:11:50.723Z,285
2017-10-25T09:12:31.150Z,275
2017-10-25T09:13:11.708Z,265
2017-10-25T09:13:53.028Z,265
2017-10-25T09:14:33.509Z,260
2017-10-25T09:15:14.004Z,260
2017-10-25T09:17:42.231Z,255
2017-10-25T09:18:22.735Z,245
2017-10-25T09:20:50.704Z,225
2017-10-25T09:21:31.319Z,230
2017-10-25T09:22:11.831Z,230
2017-10-25T09:22:53.072Z,230
2017-10-25T09:23:33.534Z,235
2017-10-25T09:24:14.071Z,235
2017-10-25T09:24:54.523Z,235
2017-10-25T09:25:35.000Z,230
2017-10-25T09:26:15.445Z,230
2017-10-25T09:26:55.970Z,230
2017-10-25T09:27:36.448Z,235
2017-10-25T09:28:16.901Z,235
2017-10-25T09:28:57.368Z,235
2017-10-25T09:29:37.842Z,245
2017-10-25T09:30:18.335Z,260
2017-10-25T09:30:58.796Z,265
2017-10-25T09:31:39.313Z,255
2017-10-25T09:32:19.857Z,265
2017-10-25T09:33:00.299Z,275
2017-10-25T09:33:40.795Z,280
2017-10-25T09:34:21.253Z,260
2017-10-25T09:35:01.768Z,260
2017-10-25T09:35:42.327Z,265
2017-10-25T09:36:23.814Z,245
2017-10-25T09:38:56.875Z,220
2017-10-25T09:39:37.353Z,230
2017-10-25T09:40:17.883Z,200
2017-10-25T09:40:58.337Z,180
2017-10-25T09:41:38.792Z,175
2017-10-25T09:44:06.811Z,175
2017-10-25T09:46:36.114Z,165
2017-10-25T09:47:15.938Z,165
2017-10-25T09:47:56.442Z,170
2017-10-25T09:48:36.946Z,165
2017-10-25T09:49:17.459Z,160
2017-10-25T09:49:57.960Z,170
2017-10-25T09:50:38.398Z,180
2017-10-25T09:51:18.837Z,180
2017-10-25T09:53:36.663Z,185
2017-10-25T09:54:17.135Z,185
2017-10-25T09:54:57.597Z,185
2017-10-25T09:55:38.055Z,185
2017-10-25T09:56:18.519Z,180
2017-10-25T09:56:59.021Z,180
2017-10-25T09:57:39.472Z,180
2017-10-25T09:58:20.324Z,185
2017-10-25T09:59:00.777Z,185
2017-10-25T09:59:46.442Z,190
2017-10-25T10:00:26.959Z,190
2017-10-25T10:01:07.486Z,190
2017-10-25T10:01:47.940Z,195
2017-10-25T10:04:26.073Z,205
2017-10-25T10:05:06.588Z,205
2017-10-25T10:05:47.000Z,210
2017-10-25T10:06:27.472Z,210
2017-10-25T10:07:07.934Z,220
2017-10-25T10:07:48.425Z,230
2017-10-25T10:08:28.951Z,230
2017-10-25T10:09:09.409Z,235
2017-10-25T10:11:27.270Z,220
2017-10-25T10:12:07.726Z,205
2017-10-25T10:12:48.278Z,195
2017-10-25T10:13:28.666Z,195
2017-10-25T10:14:09.214Z,180
2017-10-25T10:14:49.634Z,175
2017-10-25T10:15:30.106Z,190
2017-10-25T10:16:11.212Z,190
2017-10-25T10:16:51.632Z,200
2017-10-25T10:17:32.521Z,190
2017-10-25T10:18:12.981Z,185
2017-10-25T10:18:53.427Z,180
2017-10-25T10:19:33.933Z,165
2017-10-25T10:20:14.360Z,165
2017-10-25T10:20:54.836Z,200
2017-10-25T10:21:35.368Z,200
2017-10-25T10:22:15.842Z,205
2017-10-25T10:22:56.345Z,175
2017-10-25T10:23:36.817Z,190
2017-10-25T10:24:17.321Z,215
2017-10-25T10:24:57.820Z,225
2017-10-25T10:25:38.296Z,225
2017-10-25T10:26:18.728Z,220
2017-10-25T10:26:59.151Z,220
2017-10-25T10:27:39.667Z,250
2017-10-25T10:28:20.148Z,250
2017-10-25T10:29:00.585Z,240
2017-10-25T10:29:41.066Z,225
2017-10-25T10:30:21.765Z,215
2017-10-25T10:31:03.133Z,210
2017-10-25T10:31:44.649Z,205
2017-10-25T10:32:25.990Z,195
2017-10-25T10:33:06.687Z,185
2017-10-25T10:33:47.945Z,180
2017-10-25T10:34:28.377Z,170
2017-10-25T10:35:08.939Z,180
2017-10-25T10:35:49.311Z,185
2017-10-25T10:36:29.819Z,190
2017-10-25T10:37:10.337Z,180
2017-10-25T10:37:50.778Z,180
2017-10-25T10:38:31.233Z,180
2017-10-25T10:39:11.704Z,180
2017-10-25T10:39:52.151Z,180
2017-10-25T10:40:33.267Z,180
2017-10-25T10:41:13.766Z,160
2017-10-25T10:41:54.148Z,140
2017-10-25T10:42:34.649Z,150
2017-10-25T10:43:15.031Z,160
2017-10-25T10:43:55.619Z,185
2017-10-25T10:44:36.039Z,185
2017-10-25T10:45:16.722Z,185
2017-10-25T10:45:57.196Z,185
2017-10-25T10:46:38.544Z,185
2017-10-25T10:47:19.023Z,185
2017-10-25T10:47:59.476Z,185
2017-10-25T10:48:42.189Z,185
2017-10-25T10:49:24.351Z,190
2017-10-25T10:50:04.843Z,185
2017-10-25T10:50:45.255Z,185
2017-10-25T10:51:26.242Z,185
2017-10-25T10:52:07.504Z,185
2017-10-25T10:52:47.824Z,190
2017-10-25T10:53:28.937Z,195
2017-10-25T10:54:09.418Z,195
2017-10-25T10:54:49.820Z,200
2017-10-25T10:55:30.358Z,195
2017-10-25T10:56:10.859Z,190
2017-10-25T10:56:52.019Z,190
2017-10-25T10:57:32.420Z,195
2017-10-25T10:58:12.927Z,195
2017-10-25T10:58:53.373Z,195
2017-10-25T10:59:33.880Z,195
2017-10-25T11:00:14.252Z,195
2017-10-25T11:00:54.667Z,195
2017-10-25T11:01:35.141Z,195
2017-10-25T11:04:03.239Z,200
2017-10-25T11:04:43.837Z,205
2017-10-25T11:05:24.325Z,210
2017-10-25T11:06:04.871Z,210
2017-10-25T11:06:45.365Z,205
2017-10-25T11:07:25.817Z,200
2017-10-25T11:08:06.313Z,200
2017-10-25T11:08:46.803Z,205
2017-10-25T11:09:27.317Z,200
2017-10-25T11:11:40.123Z,190
2017-10-25T11:12:20.618Z,185
2017-10-25T11:13:01.097Z,185
2017-10-25T11:13:41.591Z,180
2017-10-25T11:14:22.090Z,180
2017-10-25T11:15:02.645Z,180
2017-10-25T11:15:43.122Z,180
2017-10-25T11:16:24.719Z,185
2017-10-25T11:17:06.844Z,185
2017-10-25T11:17:50.909Z,185
2017-10-25T11:20:20.099Z,185
2017-10-25T11:21:00.616Z,185
2017-10-25T11:21:41.083Z,185
2017-10-25T11:22:21.603Z,185
2017-10-25T11:23:02.105Z,200
2017-10-25T11:23:42.593Z,215
2017-10-25T11:24:23.227Z,185
2017-10-25T11:25:03.803Z,180
2017-10-25T11:27:21.655Z,180
2017-10-25T11:28:02.189Z,180
2017-10-25T11:28:42.659Z,180
2017-10-25T11:29:23.145Z,180